sensor_id;sensor_type;location;lat;lon;timestamp;pressure;altitude;pressure_sealevel;temperature;humidity
45941;BME280;31858;46.008;8.978;2023-08-30T00:00:51;93492.56;;;15.81;60.78
45941;BME280;31858;46.008;8.978;2023-08-30T00:10:53;93497.06;;;15.72;63.12
45941;BME280;31858;46.008;8.978;2023-08-30T00:20:58;93501.44;;;15.53;66.36
45941;BME280;31858;46.008;8.978;2023-08-30T00:30:59;93500.88;;;15.45;69.54
45941;BME280;31858;46.008;8.978;2023-08-30T00:41:03;93503.78;;;15.38;68.23
45941;BME280;31858;46.008;8.978;2023-08-30T00:51:04;93504.91;;;15.24;72.35
45941;BME280;31858;46.008;8.978;2023-08-30T01:01:07;93499.66;;;15.21;73.98
45941;BME280;31858;46.008;8.978;2023-08-30T01:11:12;93505.66;;;15.25;72.57
45941;BME280;31858;46.008;8.978;2023-08-30T01:21:23;93503.78;;;15.38;75.81
45941;BME280;31858;46.008;8.978;2023-08-30T01:31:31;93511.31;;;15.43;74.48
45941;BME280;31858;46.008;8.978;2023-08-30T01:41:35;93517.41;;;15.44;79.88
45941;BME280;31858;46.008;8.978;2023-08-30T01:51:39;93501.75;;;15.42;79.71
45941;BME280;31858;46.008;8.978;2023-08-30T02:01:41;93502.28;;;15.37;81.67
45941;BME280;31858;46.008;8.978;2023-08-30T02:11:45;93507.63;;;15.37;80.89
45941;BME280;31858;46.008;8.978;2023-08-30T02:21:49;93507.97;;;15.39;67.29
45941;BME280;31858;46.008;8.978;2023-08-30T02:31:52;93504.88;;;15.53;79.05
45941;BME280;31858;46.008;8.978;2023-08-30T02:41:53;93503.69;;;15.42;73.73
45941;BME280;31858;46.008;8.978;2023-08-30T02:51:56;93491.75;;;15.43;79.21
45941;BME280;31858;46.008;8.978;2023-08-30T03:01:58;93484.22;;;15.38;85.68
45941;BME280;31858;46.008;8.978;2023-08-30T03:12:00;93481.66;;;15.34;87.91
45941;BME280;31858;46.008;8.978;2023-08-30T03:22:02;93474.69;;;15.49;82.43
45941;BME280;31858;46.008;8.978;2023-08-30T03:32:06;93467.28;;;15.53;65.93
45941;BME280;31858;46.008;8.978;2023-08-30T03:42:07;93462.03;;;15.62;72.32
45941;BME280;31858;46.008;8.978;2023-08-30T03:52:10;93475.88;;;15.48;75.45
45941;BME280;31858;46.008;8.978;2023-08-30T04:02:13;93473.72;;;15.43;84.54
45941;BME280;31858;46.008;8.978;2023-08-30T04:12:16;93480.91;;;15.46;82.81
45941;BME280;31858;46.008;8.978;2023-08-30T04:22:17;93485.97;;;15.44;77.18
45941;BME280;31858;46.008;8.978;2023-08-30T04:32:20;93489.06;;;15.43;81.45
45941;BME280;31858;46.008;8.978;2023-08-30T04:42:22;93480.84;;;15.62;84.22
45941;BME280;31858;46.008;8.978;2023-08-30T04:52:25;93494.56;;;15.52;78.32
45941;BME280;31858;46.008;8.978;2023-08-30T05:02:27;93487.53;;;15.58;80.46
45941;BME280;31858;46.008;8.978;2023-08-30T05:12:30;93492.31;;;15.50;84.33
45941;BME280;31858;46.008;8.978;2023-08-30T05:22:31;93497.78;;;15.47;90.04
45941;BME280;31858;46.008;8.978;2023-08-30T05:32:34;93493.91;;;15.48;95.80
45941;BME280;31858;46.008;8.978;2023-08-30T05:42:36;93503.91;;;15.47;89.83
45941;BME280;31858;46.008;8.978;2023-08-30T05:52:39;93505.19;;;15.43;91.00
45941;BME280;31858;46.008;8.978;2023-08-30T06:02:41;93513.06;;;15.62;86.78
45941;BME280;31858;46.008;8.978;2023-08-30T06:12:44;93514.47;;;15.67;96.98
45941;BME280;31858;46.008;8.978;2023-08-30T06:22:46;93524.56;;;15.63;100.00
45941;BME280;31858;46.008;8.978;2023-08-30T06:32:49;93528.63;;;15.68;100.00
45941;BME280;31858;46.008;8.978;2023-08-30T06:42:50;93528.88;;;15.73;100.00
45941;BME280;31858;46.008;8.978;2023-08-30T06:52:53;93532.75;;;15.85;100.00
45941;BME280;31858;46.008;8.978;2023-08-30T07:02:55;93530.72;;;15.89;100.00
45941;BME280;31858;46.008;8.978;2023-08-30T07:12:59;93521.56;;;15.86;100.00
45941;BME280;31858;46.008;8.978;2023-08-30T07:23:01;93526.31;;;15.95;100.00
45941;BME280;31858;46.008;8.978;2023-08-30T07:33:04;93524.91;;;15.78;100.00
45941;BME280;31858;46.008;8.978;2023-08-30T07:43:06;93527.50;;;15.94;100.00
45941;BME280;31858;46.008;8.978;2023-08-30T07:53:08;93553.06;;;15.98;100.00
45941;BME280;31858;46.008;8.978;2023-08-30T08:03:11;93557.81;;;16.20;100.00
45941;BME280;31858;46.008;8.978;2023-08-30T08:13:14;93562.84;;;16.30;100.00
45941;BME280;31858;46.008;8.978;2023-08-30T08:23:15;93579.84;;;16.40;100.00
45941;BME280;31858;46.008;8.978;2023-08-30T08:33:18;93583.94;;;16.45;100.00
45941;BME280;31858;46.008;8.978;2023-08-30T08:43:22;93584.03;;;16.54;100.00
45941;BME280;31858;46.008;8.978;2023-08-30T08:53:25;93598.25;;;16.67;100.00
45941;BME280;31858;46.008;8.978;2023-08-30T09:03:27;93616.09;;;16.86;100.00
45941;BME280;31858;46.008;8.978;2023-08-30T09:13:30;93629.78;;;17.14;100.00
45941;BME280;31858;46.008;8.978;2023-08-30T09:23:32;93634.38;;;17.26;100.00
45941;BME280;31858;46.008;8.978;2023-08-30T09:33:36;93630.03;;;17.41;94.72
45941;BME280;31858;46.008;8.978;2023-08-30T09:43:42;93623.84;;;17.53;85.73
45941;BME280;31858;46.008;8.978;2023-08-30T09:53:49;93637.81;;;17.74;98.98
45941;BME280;31858;46.008;8.978;2023-08-30T10:03:55;93624.00;;;17.93;100.00
45941;BME280;31858;46.008;8.978;2023-08-30T10:13:59;93619.38;;;17.94;97.07
45941;BME280;31858;46.008;8.978;2023-08-30T10:24:02;93611.88;;;18.20;99.49
45941;BME280;31858;46.008;8.978;2023-08-30T10:34:13;93602.75;;;18.26;83.34
45941;BME280;31858;46.008;8.978;2023-08-30T10:44:17;93599.88;;;18.52;96.34
45941;BME280;31858;46.008;8.978;2023-08-30T10:54:23;93593.38;;;18.71;100.00
45941;BME280;31858;46.008;8.978;2023-08-30T11:04:25;93583.97;;;18.85;88.96
45941;BME280;31858;46.008;8.978;2023-08-30T11:14:28;93590.13;;;19.04;89.89
45941;BME280;31858;46.008;8.978;2023-08-30T11:24:29;93591.81;;;19.10;84.31
45941;BME280;31858;46.008;8.978;2023-08-30T11:34:32;93591.66;;;19.32;100.00
45941;BME280;31858;46.008;8.978;2023-08-30T11:44:34;93584.63;;;19.44;91.53
45941;BME280;31858;46.008;8.978;2023-08-30T11:54:38;93587.75;;;19.70;100.00
45941;BME280;31858;46.008;8.978;2023-08-30T12:04:40;93591.06;;;19.83;100.00
45941;BME280;31858;46.008;8.978;2023-08-30T12:14:43;93594.16;;;20.09;100.00
45941;BME280;31858;46.008;8.978;2023-08-30T12:24:46;93586.63;;;20.13;99.76
45941;BME280;31858;46.008;8.978;2023-08-30T12:34:49;93588.59;;;20.12;84.43
45941;BME280;31858;46.008;8.978;2023-08-30T12:44:50;93580.88;;;20.38;89.45
45941;BME280;31858;46.008;8.978;2023-08-30T12:54:53;93576.94;;;20.48;73.34
45941;BME280;31858;46.008;8.978;2023-08-30T13:04:55;93581.69;;;20.63;79.40
45941;BME280;31858;46.008;8.978;2023-08-30T13:14:58;93587.09;;;20.63;79.07
45941;BME280;31858;46.008;8.978;2023-08-30T13:24:59;93577.88;;;20.69;70.75
45941;BME280;31858;46.008;8.978;2023-08-30T13:35:03;93587.22;;;20.68;75.53
45941;BME280;31858;46.008;8.978;2023-08-30T13:45:05;93582.88;;;20.85;74.25
45941;BME280;31858;46.008;8.978;2023-08-30T13:55:11;93587.78;;;20.96;78.89
45941;BME280;31858;46.008;8.978;2023-08-30T14:05:12;93582.38;;;21.20;74.89
45941;BME280;31858;46.008;8.978;2023-08-30T14:15:15;93587.88;;;21.35;69.20
45941;BME280;31858;46.008;8.978;2023-08-30T14:25:18;93604.25;;;21.40;78.65
45941;BME280;31858;46.008;8.978;2023-08-30T14:35:21;93604.28;;;21.07;78.51
45941;BME280;31858;46.008;8.978;2023-08-30T14:45:24;93605.56;;;21.45;67.02
45941;BME280;31858;46.008;8.978;2023-08-30T14:55:27;93614.63;;;21.95;72.52
45941;BME280;31858;46.008;8.978;2023-08-30T15:05:28;93629.19;;;21.44;76.68
45941;BME280;31858;46.008;8.978;2023-08-30T15:15:31;93644.91;;;21.07;78.98
45941;BME280;31858;46.008;8.978;2023-08-30T15:25:33;93651.31;;;20.86;80.50
45941;BME280;31858;46.008;8.978;2023-08-30T15:35:38;93637.97;;;20.82;72.16
45941;BME280;31858;46.008;8.978;2023-08-30T15:45:39;93641.41;;;20.83;76.51
45941;BME280;31858;46.008;8.978;2023-08-30T15:55:44;93644.56;;;20.81;76.25
45941;BME280;31858;46.008;8.978;2023-08-30T16:05:45;93655.91;;;21.04;67.59
45941;BME280;31858;46.008;8.978;2023-08-30T16:15:48;93665.00;;;21.48;63.54
45941;BME280;31858;46.008;8.978;2023-08-30T16:25:50;93667.03;;;21.63;60.40
45941;BME280;31858;46.008;8.978;2023-08-30T16:35:53;93667.66;;;21.58;64.68
45941;BME280;31858;46.008;8.978;2023-08-30T16:45:54;93668.34;;;21.67;67.11
45941;BME280;31858;46.008;8.978;2023-08-30T16:56:01;93670.66;;;21.60;66.63
45941;BME280;31858;46.008;8.978;2023-08-30T17:06:03;93668.63;;;21.45;66.31
45941;BME280;31858;46.008;8.978;2023-08-30T17:16:07;93676.59;;;21.16;65.83
45941;BME280;31858;46.008;8.978;2023-08-30T17:26:09;93681.66;;;20.99;71.61
45941;BME280;31858;46.008;8.978;2023-08-30T17:36:12;93689.97;;;20.87;71.89
45941;BME280;31858;46.008;8.978;2023-08-30T17:46:13;93702.63;;;20.80;91.50
45941;BME280;31858;46.008;8.978;2023-08-30T17:56:16;93706.22;;;20.35;98.86
45941;BME280;31858;46.008;8.978;2023-08-30T18:06:22;93740.31;;;19.69;100.00
45941;BME280;31858;46.008;8.978;2023-08-30T18:16:25;93743.63;;;19.14;100.00
45941;BME280;31858;46.008;8.978;2023-08-30T18:26:27;93765.78;;;18.78;100.00
45941;BME280;31858;46.008;8.978;2023-08-30T18:36:29;93782.19;;;18.62;100.00
45941;BME280;31858;46.008;8.978;2023-08-30T18:46:31;93781.84;;;18.38;100.00
45941;BME280;31858;46.008;8.978;2023-08-30T18:56:35;93806.00;;;18.20;100.00
45941;BME280;31858;46.008;8.978;2023-08-30T19:06:37;93809.81;;;18.10;100.00
45941;BME280;31858;46.008;8.978;2023-08-30T19:16:40;93832.38;;;18.03;100.00
45941;BME280;31858;46.008;8.978;2023-08-30T19:26:41;93854.81;;;18.00;100.00
45941;BME280;31858;46.008;8.978;2023-08-30T19:36:44;93862.16;;;17.87;100.00
45941;BME280;31858;46.008;8.978;2023-08-30T19:46:46;93868.75;;;17.73;100.00
45941;BME280;31858;46.008;8.978;2023-08-30T19:56:49;93873.16;;;17.80;100.00
45941;BME280;31858;46.008;8.978;2023-08-30T20:06:50;93875.09;;;17.79;94.29
45941;BME280;31858;46.008;8.978;2023-08-30T20:16:54;93890.72;;;17.59;98.36
45941;BME280;31858;46.008;8.978;2023-08-30T20:26:56;93892.97;;;17.35;98.86
45941;BME280;31858;46.008;8.978;2023-08-30T20:36:59;93899.63;;;17.31;100.00
45941;BME280;31858;46.008;8.978;2023-08-30T20:47:02;93906.69;;;17.12;100.00
45941;BME280;31858;46.008;8.978;2023-08-30T20:57:05;93905.06;;;17.02;83.71
45941;BME280;31858;46.008;8.978;2023-08-30T21:07:07;93923.00;;;16.79;82.06
45941;BME280;31858;46.008;8.978;2023-08-30T21:17:10;93920.25;;;16.67;82.57
45941;BME280;31858;46.008;8.978;2023-08-30T21:27:11;93918.91;;;16.58;82.46
45941;BME280;31858;46.008;8.978;2023-08-30T21:37:14;93928.25;;;16.54;76.36
45941;BME280;31858;46.008;8.978;2023-08-30T21:47:19;93936.22;;;16.57;73.96
45941;BME280;31858;46.008;8.978;2023-08-30T21:57:22;93950.59;;;16.51;75.48
45941;BME280;31858;46.008;8.978;2023-08-30T22:07:24;93957.81;;;16.54;67.13
45941;BME280;31858;46.008;8.978;2023-08-30T22:17:28;93963.34;;;16.63;68.81
45941;BME280;31858;46.008;8.978;2023-08-30T22:27:30;93966.13;;;16.76;64.28
45941;BME280;31858;46.008;8.978;2023-08-30T22:37:34;93965.03;;;16.73;69.56
45941;BME280;31858;46.008;8.978;2023-08-30T22:47:36;93964.13;;;16.63;70.49
45941;BME280;31858;46.008;8.978;2023-08-30T22:57:39;93956.56;;;16.58;64.74
45941;BME280;31858;46.008;8.978;2023-08-30T23:07:40;93957.66;;;16.61;65.46
45941;BME280;31858;46.008;8.978;2023-08-30T23:17:44;93968.75;;;16.47;72.72
45941;BME280;31858;46.008;8.978;2023-08-30T23:27:46;93981.03;;;16.15;75.08
45941;BME280;31858;46.008;8.978;2023-08-30T23:37:49;93983.34;;;15.81;75.46
45941;BME280;31858;46.008;8.978;2023-08-30T23:47:51;93982.13;;;15.65;79.29
45941;BME280;31858;46.008;8.978;2023-08-30T23:57:54;93973.50;;;15.58;81.42
